메인 페이지
METAR-TAF:

METAR-TAF

공항 :

Chicago Rockford International Airport

록퍼드, 일리노이, 미국

위도: 42-11-34N, 경도: 089-05-36W, 고도: 224m

현재 날씨관측

예보는 1 시간 9분 전, 17:54시(UTC)에 발표되었습니다.
무풍
온도 7°C
습도 53%
기압 1027 hPa
시정: 16.1km
고도 2900ft 상공 구름 조금
고도 25000ft 상공 구름 보통

METAR: KRFD 231754Z 00000KT 10SM FEW029 SCT250 07/M02 A3033 RMK AO2 SLP275 T00721022 10078 21022 58004 $

시각: 13:03 (19:03 UTC)

예보

예보는 1 시간 43분 전, 17:20시(UTC)에 발표되었습니다.
예보 대상 시간: 23일 18시부터 24일 18시까지 (UTC)
여러 방향의 바람 4kt
시정: 10km
고도 25000ft 상공 구름 보통
24일 0000시부터 (UTC)
동남동7kt
시정: 10km
고도 7000ft 상공 흐림
24일 0800시부터 (UTC)
남동9kt
시정: 1.6km
고도 700ft 상공 흐림
약한눈, 박무
일시적
24일 09시부터 24일 13시까지 (UTC)
시정: 1.2km
고도 500ft 상공
약한눈, 박무
24일 1500시부터 (UTC)
남남동13kt
시정: 4.8km
고도 700ft 상공 흐림
약한비, 눈, 박무

TAF: KRFD 231720Z 2318/2418 VRB04KT P6SM SCT250 FM240000 12007KT P6SM OVC070 FM240800 13009KT 1SM -SN BR OVC007 TEMPO 2409/2413 3/4SM -SN BR VV005 FM241500 15013KT 3SM -RASN BR OVC007

4,000개 이상의 공항 관측 자료 및 예보 (METAR 및 TAF 보고).

지도상에서 검색 가능한 기상관측소가 노란 점과 빨간 점으로 표시되어 있습니다.

기상관측소 명을 보려면 표시 위로 마우스를 이동하세요.

날씨 관측과 예보를 보려면 클릭하세요.

지도 변경 : 확대하려면 엑스 표시가 있는 녹색 버튼, 축소하려면 빼기 표시가 있는 녹색 버튼, 다음 페이지의 지도를 보려면 녹색 화살표를 클릭하세요.


METAR-TAF: